Time;durP1;ratioP1;P1;durP2;ratioP2;P2;SDS_P1;SDS_P2;PMS_P1;PMS_P2;Temp;Humidity;BMP_temperature;BMP_pressure;BME280_temperature;BME280_humidity;BME280_pressure;Samples;Min_cycle;Max_cycle;Signal;HPM_P1;HPM_P2
2022/08/02 00:02:11;;;;;;;2.30;2.03;;;19.60;99.90;;;;;;6084239;23;20471;-74
2022/08/02 00:04:38;;;;;;;2.70;2.20;;;19.60;99.90;;;;;;6070322;23;20522;-75
2022/08/02 00:07:05;;;;;;;2.40;2.20;;;19.80;99.90;;;;;;6081161;23;20937;-75
2022/08/02 00:09:33;;;;;;;2.67;2.10;;;19.50;99.90;;;;;;6076080;23;20450;-74
2022/08/02 00:12:01;;;;;;;2.50;2.30;;;19.50;99.90;;;;;;6076203;23;20458;-74
2022/08/02 00:14:28;;;;;;;2.23;1.87;;;19.40;99.90;;;;;;6079975;23;20503;-74
2022/08/02 00:16:55;;;;;;;2.20;2.00;;;19.40;99.90;;;;;;6083132;23;20484;-74
2022/08/02 00:19:22;;;;;;;2.10;2.00;;;19.40;99.90;;;;;;6074150;23;21007;-76
2022/08/02 00:21:49;;;;;;;2.10;2.00;;;19.40;99.90;;;;;;6079736;23;20446;-75
2022/08/02 00:24:16;;;;;;;3.30;2.57;;;19.40;99.90;;;;;;6077435;23;20541;-75
2022/08/02 00:26:45;;;;;;;3.77;3.13;;;19.30;99.90;;;;;;6086510;23;20450;-73
2022/08/02 00:29:12;;;;;;;4.40;4.00;;;19.40;99.90;;;;;;6088156;23;21175;-74
2022/08/02 00:31:39;;;;;;;5.67;5.27;;;19.50;99.90;;;;;;6081897;23;20850;-73
2022/08/02 00:34:06;;;;;;;7.77;7.27;;;19.50;99.90;;;;;;6073528;23;20473;-73
2022/08/02 00:36:33;;;;;;;8.10;7.50;;;19.60;99.90;;;;;;6083002;23;20886;-75
2022/08/02 00:39:00;;;;;;;9.43;8.73;;;19.70;99.90;;;;;;6074901;23;20488;-74
2022/08/02 00:41:27;;;;;;;9.13;8.53;;;19.80;99.90;;;;;;6080364;23;20470;-74
2022/08/02 00:43:57;;;;;;;8.40;7.80;;;19.80;99.90;;;;;;6082500;23;20446;-74
2022/08/02 00:46:24;;;;;;;6.70;6.20;;;19.80;99.90;;;;;;6080351;23;20484;-74
2022/08/02 00:48:54;;;;;;;6.20;5.70;;;19.80;99.90;;;;;;6084301;23;20447;-76
2022/08/02 00:51:25;;;;;;;4.87;4.50;;;19.80;99.90;;;;;;6082305;23;20835;-74
2022/08/02 00:53:52;;;;;;;5.33;4.93;;;19.90;99.90;;;;;;6082355;23;20508;-75
2022/08/02 00:56:22;;;;;;;5.00;4.60;;;19.90;99.90;;;;;;6073072;23;20455;-75
2022/08/02 00:58:49;;;;;;;4.30;3.90;;;19.80;99.90;;;;;;6084574;23;20465;-75
2022/08/02 01:01:18;;;;;;;4.40;4.10;;;19.80;99.90;;;;;;6077508;23;20473;-75
2022/08/02 01:03:45;;;;;;;4.40;4.10;;;19.90;99.90;;;;;;6075231;23;20435;-75
2022/08/02 01:06:12;;;;;;;5.93;4.40;;;20.00;99.90;;;;;;6074696;23;20479;-75
2022/08/02 01:08:39;;;;;;;4.27;3.90;;;19.90;99.90;;;;;;6081821;23;20533;-74
2022/08/02 01:11:09;;;;;;;4.63;4.23;;;19.70;99.90;;;;;;6089244;23;20447;-74
2022/08/02 01:13:37;;;;;;;3.80;3.50;;;19.80;99.90;;;;;;6076010;23;21022;-74
2022/08/02 01:16:11;;;;;;;3.80;3.50;;;19.80;99.90;;;;;;6078839;23;20525;-74
2022/08/02 01:18:45;;;;;;;4.00;3.10;;;19.80;99.90;;;;;;6070861;23;20554;-74
2022/08/02 01:21:55;;;;;;;3.30;3.00;;;19.80;99.90;;;;;;6070320;23;20455;-75
2022/08/02 01:24:44;;;;;;;3.03;2.73;;;19.70;99.90;;;;;;6058371;23;20521;-73
2022/08/02 01:27:23;;;;;;;3.47;3.00;;;19.70;99.90;;;;;;6082235;23;20500;-75
2022/08/02 01:29:56;;;;;;;3.40;3.00;;;19.70;99.90;;;;;;6075770;23;20446;-74
2022/08/02 01:32:28;;;;;;;3.77;3.47;;;19.70;99.90;;;;;;6078109;23;20514;-75
2022/08/02 01:35:01;;;;;;;4.03;3.60;;;19.70;99.90;;;;;;6078483;23;20526;-74
2022/08/02 01:37:34;;;;;;;3.10;2.90;;;19.70;99.90;;;;;;6077817;23;20966;-73
2022/08/02 01:40:08;;;;;;;3.30;3.03;;;19.60;99.90;;;;;;6077163;23;20524;-74
2022/08/02 01:42:37;;;;;;;3.30;3.10;;;19.70;99.90;;;;;;6072554;23;20471;-73
2022/08/02 01:45:07;;;;;;;4.83;3.60;;;19.70;99.90;;;;;;6085146;23;20434;-74
2022/08/02 01:47:39;;;;;;;3.17;2.87;;;19.60;99.90;;;;;;6077190;23;20440;-74
2022/08/02 01:50:09;;;;;;;3.47;3.27;;;19.60;99.90;;;;;;6066895;23;20447;-74
2022/08/02 01:52:42;;;;;;;3.27;3.03;;;19.60;99.90;;;;;;6082193;23;20775;-73
2022/08/02 01:55:13;;;;;;;5.17;3.77;;;19.50;99.90;;;;;;6075300;23;20937;-74
2022/08/02 01:57:48;;;;;;;3.43;3.23;;;19.50;99.90;;;;;;6077503;23;20541;-73
2022/08/02 02:00:18;;;;;;;4.47;3.80;;;19.50;99.90;;;;;;6071392;23;20566;-73
2022/08/02 02:02:48;;;;;;;3.40;3.10;;;19.50;99.90;;;;;;6078675;23;20481;-74
2022/08/02 02:05:18;;;;;;;3.80;3.50;;;19.50;99.90;;;;;;6085574;23;20521;-74
2022/08/02 02:07:46;;;;;;;4.00;3.50;;;19.50;99.90;;;;;;6083749;23;20438;-72
2022/08/02 02:10:16;;;;;;;3.03;2.80;;;19.50;99.90;;;;;;6087176;23;20508;-73
2022/08/02 02:12:47;;;;;;;3.90;3.60;;;19.50;99.90;;;;;;6084085;23;20447;-73
2022/08/02 02:15:14;;;;;;;3.77;3.47;;;19.40;99.90;;;;;;6075781;23;20934;-73
2022/08/02 02:17:44;;;;;;;3.80;3.50;;;19.40;99.90;;;;;;6082618;23;20880;-73
2022/08/02 02:20:15;;;;;;;4.90;4.50;;;19.40;99.90;;;;;;6061514;23;20605;-73
2022/08/02 02:22:43;;;;;;;3.83;3.50;;;19.30;99.90;;;;;;6077655;23;20470;-73
2022/08/02 02:25:12;;;;;;;3.60;3.30;;;19.30;99.90;;;;;;6087524;23;20442;-73
2022/08/02 02:27:45;;;;;;;3.80;3.50;;;19.20;99.90;;;;;;6081833;23;20434;-73
2022/08/02 02:30:16;;;;;;;4.33;4.03;;;19.20;99.90;;;;;;6073571;23;20454;-74
2022/08/02 02:32:48;;;;;;;3.30;3.10;;;19.10;99.90;;;;;;6076676;23;20479;-75
2022/08/02 02:35:17;;;;;;;3.57;3.20;;;19.00;99.90;;;;;;6077352;23;20983;-75
2022/08/02 02:37:49;;;;;;;3.17;2.97;;;19.00;99.90;;;;;;6082573;23;20451;-75
2022/08/02 02:40:18;;;;;;;3.40;3.20;;;18.90;99.90;;;;;;6077518;23;20485;-73
2022/08/02 02:42:46;;;;;;;3.77;3.40;;;19.20;99.90;;;;;;6075530;23;20441;-74
2022/08/02 02:45:13;;;;;;;3.50;3.17;;;18.90;99.90;;;;;;6073574;23;20445;-74
2022/08/02 02:47:41;;;;;;;3.40;3.10;;;18.90;99.90;;;;;;6066700;23;20438;-73
2022/08/02 02:50:11;;;;;;;3.20;3.00;;;18.90;99.90;;;;;;6079490;23;20463;-74
2022/08/02 02:52:40;;;;;;;3.10;2.80;;;18.90;99.90;;;;;;6085158;23;20438;-74
2022/08/02 02:55:08;;;;;;;3.50;3.20;;;19.10;99.90;;;;;;6085136;23;20458;-74
2022/08/02 02:57:37;;;;;;;3.83;3.53;;;18.90;99.90;;;;;;6087146;23;20474;-74
2022/08/02 03:00:07;;;;;;;3.97;3.57;;;18.90;99.90;;;;;;6079528;23;20474;-74
2022/08/02 03:02:34;;;;;;;4.10;3.70;;;18.80;99.90;;;;;;6079302;23;20494;-74
2022/08/02 03:05:03;;;;;;;3.70;3.40;;;18.70;99.90;;;;;;6080356;23;20471;-73
2022/08/02 03:07:32;;;;;;;4.43;3.63;;;18.70;99.90;;;;;;6085527;23;20437;-74
2022/08/02 03:09:59;;;;;;;3.70;3.40;;;18.60;99.90;;;;;;6072610;23;20462;-74
2022/08/02 03:12:27;;;;;;;3.77;3.47;;;18.50;99.90;;;;;;6083899;23;20824;-74
2022/08/02 03:14:57;;;;;;;3.70;3.40;;;18.50;99.90;;;;;;6086719;23;20473;-74
2022/08/02 03:17:24;;;;;;;3.60;3.40;;;18.40;99.90;;;;;;6083334;23;20462;-74
2022/08/02 03:19:51;;;;;;;3.67;3.47;;;18.40;99.90;;;;;;6083615;23;20474;-74
2022/08/02 03:22:18;;;;;;;3.67;3.30;;;18.40;99.90;;;;;;6085486;23;20802;-75
2022/08/02 03:24:47;;;;;;;3.60;3.30;;;18.40;99.90;;;;;;6083276;23;20837;-75
2022/08/02 03:27:14;;;;;;;3.63;3.33;;;18.40;99.90;;;;;;6082506;23;20488;-75
2022/08/02 03:29:41;;;;;;;3.93;3.30;;;18.40;99.90;;;;;;6071295;23;21730;-75
2022/08/02 03:32:12;;;;;;;3.90;3.60;;;18.50;99.90;;;;;;6072684;23;20611;-74
2022/08/02 03:34:44;;;;;;;3.60;3.30;;;18.50;99.90;;;;;;6085513;23;20448;-74
2022/08/02 03:37:12;;;;;;;3.57;3.20;;;18.50;99.90;;;;;;6071020;23;20447;-76
2022/08/02 03:39:39;;;;;;;3.20;3.00;;;18.50;99.90;;;;;;6087426;23;20531;-77
2022/08/02 03:42:08;;;;;;;3.23;3.03;;;18.50;99.90;;;;;;6094116;23;20516;-77
2022/08/02 03:44:38;;;;;;;3.40;3.10;;;18.50;99.90;;;;;;6085324;23;20495;-75
2022/08/02 03:47:06;;;;;;;3.37;3.17;;;18.50;99.90;;;;;;6082666;23;20454;-75
2022/08/02 03:49:35;;;;;;;3.73;2.90;;;18.50;99.90;;;;;;6082197;23;20463;-76
2022/08/02 03:52:02;;;;;;;3.07;2.80;;;18.60;99.90;;;;;;6085217;23;20457;-75
2022/08/02 03:54:29;;;;;;;3.90;3.20;;;18.60;99.90;;;;;;6086217;23;20465;-76
2022/08/02 03:56:57;;;;;;;3.03;2.70;;;18.60;99.90;;;;;;6080248;23;20445;-76
2022/08/02 03:59:25;;;;;;;3.37;3.17;;;18.70;99.90;;;;;;6072068;23;20468;-75
2022/08/02 04:01:52;;;;;;;3.00;2.80;;;18.70;99.90;;;;;;6080622;23;20438;-75
2022/08/02 04:06:55;;;;;;;3.20;2.90;;;18.70;99.90;;;;;;5115506;22;21918;-75
2022/08/02 04:09:22;;;;;;;3.20;3.00;;;18.70;99.90;;;;;;4987400;28;20467;-75
2022/08/02 04:11:49;;;;;;;3.50;3.20;;;18.70;99.90;;;;;;4995937;28;20462;-75
2022/08/02 04:14:16;;;;;;;4.03;3.73;;;18.60;99.90;;;;;;4996074;28;20450;-75
2022/08/02 04:16:50;;;;;;;3.97;3.57;;;18.60;99.90;;;;;;4986370;28;20498;-76
2022/08/02 04:19:21;;;;;;;3.77;3.47;;;18.60;99.90;;;;;;4988730;28;20473;-75
2022/08/02 04:21:51;;;;;;;4.30;3.90;;;18.50;99.90;;;;;;4978937;28;20458;-76
2022/08/02 04:24:21;;;;;;;4.20;3.90;;;18.60;99.90;;;;;;4984048;28;20939;-75
2022/08/02 04:26:50;;;;;;;3.60;3.30;;;18.60;99.90;;;;;;4983009;28;20874;-75
2022/08/02 04:29:18;;;;;;;3.80;3.43;;;18.60;99.90;;;;;;4987792;28;20457;-76
2022/08/02 04:31:46;;;;;;;4.20;3.33;;;18.60;99.90;;;;;;4988293;28;20488;-76
2022/08/02 04:34:14;;;;;;;4.47;3.77;;;18.60;99.90;;;;;;4987320;28;20485;-75
2022/08/02 04:36:41;;;;;;;3.70;3.40;;;18.70;99.90;;;;;;4990374;28;20544;-75
2022/08/02 04:39:08;;;;;;;3.90;3.57;;;18.80;99.90;;;;;;4990705;28;20495;-75
2022/08/02 04:41:39;;;;;;;5.40;3.67;;;18.70;99.90;;;;;;4990976;28;20457;-75
2022/08/02 04:44:06;;;;;;;3.87;3.50;;;18.80;99.90;;;;;;4989352;28;20485;-75
2022/08/02 04:46:34;;;;;;;4.87;3.50;;;18.80;99.90;;;;;;4994821;28;20536;-76
2022/08/02 04:49:04;;;;;;;3.97;3.60;;;18.90;99.90;;;;;;4988338;28;20509;-76
2022/08/02 04:51:31;;;;;;;3.10;2.80;;;18.90;99.90;;;;;;4997425;28;22288;-78
2022/08/02 04:53:58;;;;;;;5.17;3.40;;;18.90;99.90;;;;;;4991140;28;20591;-78
2022/08/02 04:56:25;;;;;;;3.30;2.80;;;18.90;99.90;;;;;;4984923;28;20556;-78
2022/08/02 04:58:52;;;;;;;3.50;3.20;;;18.90;99.90;;;;;;4989874;28;20516;-78
2022/08/02 05:01:19;;;;;;;5.40;4.07;;;18.80;99.90;;;;;;4994759;28;20499;-77
2022/08/02 05:03:46;;;;;;;4.37;3.97;;;18.80;99.90;;;;;;4992849;28;20520;-79
2022/08/02 05:06:15;;;;;;;5.33;3.73;;;18.90;99.90;;;;;;4993341;28;20460;-80
2022/08/02 05:08:57;;;;;;;4.93;4.40;;;18.90;99.90;;;;;;4992862;28;20540;-79
2022/08/02 05:11:25;;;;;;;4.70;4.30;;;18.90;99.90;;;;;;4993059;28;20584;-80
2022/08/02 05:13:52;;;;;;;3.67;3.37;;;18.90;99.90;;;;;;4986328;28;20478;-79
2022/08/02 05:16:19;;;;;;;3.40;3.20;;;19.00;99.90;;;;;;4983534;28;20458;-79
2022/08/02 05:18:46;;;;;;;4.50;3.90;;;19.10;99.90;;;;;;4993709;28;20493;-78
2022/08/02 05:21:14;;;;;;;3.90;3.60;;;19.20;99.90;;;;;;4994235;28;20572;-80
2022/08/02 05:23:41;;;;;;;4.03;3.70;;;19.30;99.90;;;;;;4983911;28;20501;-79
2022/08/02 05:26:08;;;;;;;4.23;3.93;;;19.50;99.90;;;;;;4976039;28;20457;-79
2022/08/02 05:28:35;;;;;;;4.73;3.53;;;19.50;99.90;;;;;;4981634;28;20459;-78
2022/08/02 05:31:02;;;;;;;4.77;4.27;;;19.50;99.90;;;;;;4985736;28;20453;-78
2022/08/02 05:33:30;;;;;;;4.40;4.00;;;19.60;99.90;;;;;;4986865;28;20505;-78
2022/08/02 05:35:57;;;;;;;4.53;4.07;;;19.60;99.90;;;;;;4987478;28;20540;-78
2022/08/02 05:38:29;;;;;;;4.97;4.57;;;19.70;99.90;;;;;;4990269;28;20453;-77
2022/08/02 05:40:57;;;;;;;5.33;4.47;;;19.60;99.90;;;;;;4990810;28;20544;-78
2022/08/02 05:43:24;;;;;;;4.57;3.63;;;19.60;99.90;;;;;;4981668;28;20483;-77
2022/08/02 05:45:53;;;;;;;3.93;3.60;;;19.70;99.90;;;;;;4987937;28;20477;-77
2022/08/02 05:48:20;;;;;;;4.97;4.13;;;19.80;99.90;;;;;;4989734;28;20549;-78
2022/08/02 05:50:54;;;;;;;3.53;3.20;;;19.80;99.90;;;;;;4991301;28;20462;-78
2022/08/02 05:53:34;;;;;;;3.73;3.30;;;19.90;99.90;;;;;;4990119;28;20479;-78
2022/08/02 05:56:07;;;;;;;4.53;3.30;;;20.10;99.90;;;;;;4983672;28;20468;-78
2022/08/02 05:58:46;;;;;;;4.00;3.70;;;20.20;99.90;;;;;;4987874;28;20464;-78
2022/08/02 06:01:16;;;;;;;4.10;3.33;;;20.40;99.90;;;;;;4986066;28;20993;-78
2022/08/02 06:03:50;;;;;;;3.33;3.13;;;20.60;99.90;;;;;;4985204;28;20891;-78
2022/08/02 06:06:23;;;;;;;3.60;3.17;;;20.70;99.90;;;;;;4988125;28;20902;-78
2022/08/02 06:08:58;;;;;;;3.60;3.30;;;20.90;99.90;;;;;;4985848;28;20495;-77
2022/08/02 06:11:35;;;;;;;3.20;3.00;;;21.00;99.90;;;;;;4987954;28;20551;-77
2022/08/02 06:14:03;;;;;;;4.43;3.50;;;21.10;99.90;;;;;;4984870;28;20462;-78
2022/08/02 06:16:31;;;;;;;4.97;3.50;;;21.20;99.90;;;;;;4984747;28;21664;-78
2022/08/02 06:18:59;;;;;;;4.80;3.80;;;21.30;99.90;;;;;;4990143;28;20465;-78
2022/08/02 06:21:26;;;;;;;5.23;3.20;;;21.50;99.90;;;;;;4988026;28;20576;-77
2022/08/02 06:23:57;;;;;;;3.83;3.53;;;21.60;99.90;;;;;;4985557;28;20497;-78
2022/08/02 06:26:25;;;;;;;3.43;3.13;;;21.80;99.90;;;;;;4985875;28;20537;-78
2022/08/02 06:28:53;;;;;;;4.13;3.50;;;21.80;99.90;;;;;;4989195;28;20458;-78
2022/08/02 06:31:20;;;;;;;8.70;3.80;;;21.90;99.90;;;;;;4985508;28;20738;-78
2022/08/02 06:33:47;;;;;;;3.53;3.23;;;22.10;99.90;;;;;;4986269;28;20842;-78
2022/08/02 06:36:19;;;;;;;2.90;2.70;;;22.10;99.90;;;;;;4989467;28;20473;-78
2022/08/02 06:39:05;;;;;;;3.60;3.30;;;22.20;99.90;;;;;;4987971;28;21002;-78
2022/08/02 06:41:41;;;;;;;3.27;3.07;;;22.40;99.90;;;;;;4989331;28;20557;-78
2022/08/02 06:44:08;;;;;;;4.67;3.47;;;22.50;99.90;;;;;;4986281;28;20560;-78
2022/08/02 06:46:36;;;;;;;4.43;4.03;;;22.60;99.90;;;;;;4989016;28;20465;-74
2022/08/02 06:49:04;;;;;;;5.77;3.40;;;22.60;99.90;;;;;;4990573;28;20465;-79
2022/08/02 06:51:31;;;;;;;4.53;3.90;;;22.60;99.90;;;;;;4991481;28;20478;-81
2022/08/02 06:53:58;;;;;;;4.93;3.90;;;22.50;99.90;;;;;;4988751;28;20557;-80
2022/08/02 06:56:26;;;;;;;4.27;3.80;;;22.40;99.90;;;;;;4989275;28;20473;-80
2022/08/02 06:58:53;;;;;;;4.10;3.80;;;22.30;99.90;;;;;;4988061;28;20557;-74
2022/08/02 07:01:20;;;;;;;3.70;3.37;;;22.40;99.90;;;;;;4987352;28;20585;-74
2022/08/02 07:03:48;;;;;;;7.03;4.80;;;22.40;99.90;;;;;;4984517;28;21045;-75
2022/08/02 07:06:15;;;;;;;4.37;4.07;;;22.50;99.90;;;;;;4980302;28;20540;-75
2022/08/02 07:08:42;;;;;;;4.20;3.90;;;22.60;99.90;;;;;;4986047;28;20462;-75
2022/08/02 07:11:10;;;;;;;5.00;4.60;;;22.70;99.90;;;;;;4989612;28;20891;-74
2022/08/02 07:13:39;;;;;;;4.20;3.80;;;22.80;99.90;;;;;;4987925;28;20543;-74
2022/08/02 07:16:07;;;;;;;4.40;4.10;;;22.90;99.90;;;;;;4988891;28;21059;-75
2022/08/02 07:18:34;;;;;;;5.30;4.50;;;23.00;99.90;;;;;;4987247;28;20541;-74
2022/08/02 07:21:04;;;;;;;4.40;4.10;;;23.30;99.90;;;;;;4989866;28;20492;-75
2022/08/02 07:23:31;;;;;;;4.93;4.53;;;23.50;99.90;;;;;;4986772;28;20454;-74
2022/08/02 07:25:59;;;;;;;4.47;4.13;;;23.80;99.90;;;;;;4987798;28;20455;-74
2022/08/02 07:28:26;;;;;;;4.60;4.30;;;24.00;99.90;;;;;;4982991;28;20459;-74
2022/08/02 07:30:55;;;;;;;4.10;3.80;;;24.40;99.90;;;;;;4981574;28;20493;-75
2022/08/02 07:33:22;;;;;;;3.93;3.63;;;24.90;99.90;;;;;;4986367;28;20462;-74
2022/08/02 07:35:49;;;;;;;5.00;4.50;;;25.50;99.90;;;;;;4986446;28;20520;-75
2022/08/02 07:38:16;;;;;;;4.30;4.00;;;25.90;99.90;;;;;;4990611;28;20462;-76
2022/08/02 07:40:43;;;;;;;3.90;3.60;;;26.20;99.90;;;;;;4987475;28;20601;-74
2022/08/02 07:43:10;;;;;;;3.63;3.43;;;26.50;99.90;;;;;;4989678;28;20464;-81
2022/08/02 07:45:37;;;;;;;4.47;4.07;;;26.80;99.90;;;;;;4987792;28;20944;-81
2022/08/02 07:48:07;;;;;;;4.80;4.40;;;27.10;99.90;;;;;;4983023;28;20496;-74
2022/08/02 07:50:34;;;;;;;3.40;3.20;;;27.50;99.90;;;;;;4986108;28;20485;-74
2022/08/02 07:53:02;;;;;;;3.30;3.00;;;27.90;99.90;;;;;;4988341;28;20462;-75
2022/08/02 07:55:29;;;;;;;3.50;3.20;;;28.40;99.90;;;;;;4984763;28;20516;-75
2022/08/02 07:57:56;;;;;;;4.50;4.10;;;28.80;99.90;;;;;;4987374;28;20484;-75
2022/08/02 15:32:32;;;;;;;2.30;2.20;;;42.20;41.40;;;;;;6103064;23;20583;-70
2022/08/02 15:34:59;;;;;;;2.50;2.30;;;42.10;41.20;;;;;;6082384;23;20437;-71
2022/08/02 15:37:26;;;;;;;2.30;2.20;;;42.20;41.10;;;;;;6087175;23;20442;-71
2022/08/02 15:39:53;;;;;;;2.30;2.20;;;42.30;40.90;;;;;;6086388;23;20500;-71
2022/08/02 15:42:20;;;;;;;2.70;2.27;;;42.50;41.10;;;;;;6084255;23;20437;-71
2022/08/02 15:44:47;;;;;;;2.43;2.23;;;42.80;41.10;;;;;;6087756;23;20433;-71
2022/08/02 15:47:14;;;;;;;2.30;2.20;;;42.90;40.30;;;;;;6079303;23;20517;-71
2022/08/02 15:49:46;;;;;;;2.83;2.63;;;43.10;40.50;;;;;;6079092;23;21044;-71
2022/08/02 15:52:14;;;;;;;2.70;2.50;;;42.80;39.70;;;;;;6071098;23;20601;-70
2022/08/02 15:54:41;;;;;;;2.23;2.13;;;42.50;40.60;;;;;;6077632;23;20435;-70
2022/08/02 15:57:08;;;;;;;2.50;2.40;;;42.30;41.00;;;;;;6071238;23;20440;-73
2022/08/02 15:59:35;;;;;;;2.30;2.20;;;42.10;40.80;;;;;;6082314;23;20519;-70
2022/08/02 16:02:03;;;;;;;2.23;2.13;;;41.80;40.20;;;;;;6084801;23;20446;-71
2022/08/02 16:04:30;;;;;;;2.10;2.00;;;41.50;40.80;;;;;;6087921;23;20521;-70
2022/08/02 16:06:58;;;;;;;2.20;2.10;;;41.00;41.10;;;;;;6075511;23;20426;-70
2022/08/02 16:09:26;;;;;;;2.60;2.40;;;40.10;42.10;;;;;;6079718;23;21383;-70
2022/08/02 16:11:53;;;;;;;1.97;1.87;;;39.90;42.80;;;;;;6074721;23;20462;-71
2022/08/02 16:14:20;;;;;;;2.70;2.50;;;39.90;43.00;;;;;;6083303;23;20442;-71
2022/08/02 16:16:48;;;;;;;2.47;2.27;;;39.70;42.70;;;;;;6077868;23;20533;-70
2022/08/02 16:19:15;;;;;;;2.33;2.13;;;39.30;43.00;;;;;;6073505;23;20450;-70
2022/08/02 16:21:42;;;;;;;2.53;2.33;;;38.90;43.10;;;;;;6087662;23;20436;-70
2022/08/02 16:24:11;;;;;;;2.53;2.33;;;38.30;43.70;;;;;;6096812;23;20433;-70
2022/08/02 16:26:38;;;;;;;2.40;2.27;;;37.40;44.50;;;;;;6078070;23;20454;-70
2022/08/02 16:29:05;;;;;;;2.53;2.40;;;36.60;45.50;;;;;;6081344;23;20537;-70
2022/08/02 16:31:32;;;;;;;2.27;2.13;;;35.90;46.50;;;;;;6083666;23;20482;-70
2022/08/02 16:33:59;;;;;;;2.50;2.30;;;35.50;47.20;;;;;;6087603;23;20944;-70
2022/08/02 16:36:27;;;;;;;2.60;2.50;;;35.10;47.80;;;;;;6078568;23;20516;-70
2022/08/02 16:38:55;;;;;;;2.40;2.30;;;34.40;47.40;;;;;;6078761;23;20496;-70
2022/08/02 16:41:23;;;;;;;2.40;2.20;;;33.80;48.70;;;;;;6078979;23;20487;-70
2022/08/02 16:43:51;;;;;;;2.30;2.20;;;33.30;49.50;;;;;;6073291;23;21184;-70
2022/08/02 16:46:18;;;;;;;2.17;2.07;;;32.90;50.20;;;;;;6076764;23;20479;-70
2022/08/02 16:48:45;;;;;;;3.57;2.47;;;32.70;51.00;;;;;;6084329;23;20513;-70
2022/08/02 16:51:12;;;;;;;2.30;2.20;;;32.50;51.30;;;;;;6067508;23;20498;-70
2022/08/02 16:53:40;;;;;;;2.50;2.30;;;32.30;51.90;;;;;;6082304;23;20481;-70
2022/08/02 16:56:07;;;;;;;2.77;2.57;;;32.30;52.10;;;;;;6085896;23;20442;-70
2022/08/02 16:58:36;;;;;;;2.80;2.60;;;32.20;52.20;;;;;;6076361;23;20454;-70
2022/08/02 17:01:03;;;;;;;2.60;2.50;;;32.10;52.20;;;;;;6072468;23;20438;-70
2022/08/02 17:03:30;;;;;;;2.70;2.50;;;32.10;52.20;;;;;;6066545;23;20441;-70
2022/08/02 17:05:57;;;;;;;2.70;2.50;;;32.10;52.70;;;;;;6066921;23;20462;-70
2022/08/02 17:08:25;;;;;;;3.07;2.50;;;31.90;52.30;;;;;;6083471;23;20454;-70
2022/08/02 17:10:52;;;;;;;3.37;2.30;;;31.80;52.60;;;;;;6085428;23;20506;-70
2022/08/02 17:13:19;;;;;;;2.50;2.30;;;31.70;53.00;;;;;;6088671;23;20438;-70
2022/08/02 17:15:48;;;;;;;2.10;1.90;;;31.50;52.60;;;;;;6083243;23;20577;-70
2022/08/02 17:18:15;;;;;;;2.20;2.00;;;31.40;53.30;;;;;;6074057;23;20459;-70
2022/08/02 17:20:43;;;;;;;2.40;2.20;;;31.30;53.90;;;;;;6085041;23;20824;-70
2022/08/02 17:23:11;;;;;;;2.80;2.60;;;31.30;54.00;;;;;;6074772;23;20438;-70
2022/08/02 17:25:38;;;;;;;2.50;2.30;;;31.30;54.00;;;;;;6069638;23;20470;-70
2022/08/02 17:28:05;;;;;;;2.50;2.30;;;31.20;54.00;;;;;;6079774;23;20477;-70
2022/08/02 17:30:32;;;;;;;2.40;2.30;;;31.00;54.10;;;;;;6089829;23;20521;-70
2022/08/02 17:33:01;;;;;;;2.83;2.60;;;30.90;54.40;;;;;;6084815;23;20492;-70
2022/08/02 17:35:28;;;;;;;2.43;2.33;;;30.90;54.70;;;;;;6067027;23;20463;-70
2022/08/02 17:37:55;;;;;;;2.73;2.53;;;30.80;55.10;;;;;;6078922;23;20536;-69
2022/08/02 17:40:22;;;;;;;3.30;3.10;;;30.70;54.80;;;;;;6074269;23;20505;-72
2022/08/02 17:42:49;;;;;;;4.87;4.57;;;30.60;54.80;;;;;;6081229;23;20452;-71
2022/08/02 17:45:16;;;;;;;2.83;2.63;;;30.50;54.90;;;;;;6081807;23;20517;-70
2022/08/02 17:47:43;;;;;;;2.80;2.70;;;30.50;55.30;;;;;;6076687;23;20513;-70
2022/08/02 17:50:11;;;;;;;2.77;2.50;;;30.40;55.40;;;;;;6073743;23;20517;-72
2022/08/02 17:52:39;;;;;;;2.60;2.40;;;30.30;55.40;;;;;;6075221;23;20505;-73
2022/08/02 17:55:09;;;;;;;2.67;2.50;;;30.30;55.50;;;;;;6079229;23;20466;-72
2022/08/02 17:57:36;;;;;;;2.17;2.07;;;30.20;55.70;;;;;;6076216;23;20459;-72
2022/08/02 18:00:06;;;;;;;2.37;2.20;;;30.10;55.40;;;;;;6074448;23;20440;-72
2022/08/02 18:02:33;;;;;;;2.27;2.07;;;30.00;55.50;;;;;;6074257;23;20441;-72
2022/08/02 18:05:01;;;;;;;3.30;2.37;;;29.90;55.80;;;;;;6072549;23;20442;-72
2022/08/02 18:07:30;;;;;;;2.53;2.33;;;29.90;56.60;;;;;;6074085;23;20455;-72
2022/08/02 18:09:57;;;;;;;3.30;3.10;;;29.80;56.50;;;;;;6082938;23;20525;-72
2022/08/02 18:12:24;;;;;;;2.50;2.30;;;29.70;56.70;;;;;;6079848;23;20466;-72
2022/08/02 18:14:51;;;;;;;2.20;2.10;;;29.70;56.30;;;;;;6078887;23;20444;-72
2022/08/02 18:17:18;;;;;;;5.53;2.70;;;29.70;56.40;;;;;;6074784;23;20466;-73
2022/08/02 18:19:46;;;;;;;2.30;2.10;;;29.50;56.60;;;;;;6074384;23;20435;-72
2022/08/02 18:22:14;;;;;;;2.60;2.30;;;29.50;56.80;;;;;;6087011;23;20844;-74
2022/08/02 18:24:43;;;;;;;3.17;2.10;;;29.40;57.00;;;;;;6085148;23;20837;-73
2022/08/02 18:27:11;;;;;;;2.20;2.00;;;29.30;57.20;;;;;;6082347;23;20459;-73
2022/08/02 18:29:39;;;;;;;2.80;2.60;;;29.20;57.30;;;;;;6087556;23;20523;-72
2022/08/02 18:32:07;;;;;;;2.93;2.60;;;29.20;57.30;;;;;;6073441;23;20470;-73
2022/08/02 18:34:34;;;;;;;2.87;2.20;;;29.10;57.40;;;;;;6081388;23;20445;-73
2022/08/02 18:37:02;;;;;;;2.40;2.30;;;29.10;57.50;;;;;;6076862;23;20542;-73
2022/08/02 18:39:29;;;;;;;2.80;2.27;;;29.00;57.90;;;;;;6086390;23;20917;-73
2022/08/02 18:41:57;;;;;;;2.60;2.43;;;28.90;57.90;;;;;;6070278;23;20443;-72
2022/08/02 18:44:28;;;;;;;2.13;2.03;;;28.80;57.90;;;;;;6085990;23;20470;-72
2022/08/02 18:46:55;;;;;;;2.60;2.37;;;28.80;58.10;;;;;;6082681;23;20932;-73
2022/08/02 18:49:22;;;;;;;2.40;2.30;;;28.70;58.40;;;;;;6081869;23;20439;-72
2022/08/02 18:51:50;;;;;;;2.40;2.20;;;28.70;58.70;;;;;;6086329;23;20588;-72
2022/08/02 18:54:17;;;;;;;2.37;2.20;;;28.60;58.80;;;;;;6072320;23;20522;-72
2022/08/02 18:56:44;;;;;;;2.90;2.40;;;28.60;58.80;;;;;;6086927;23;20537;-72
2022/08/02 18:59:13;;;;;;;2.30;2.20;;;28.50;59.00;;;;;;6077237;23;20596;-72
2022/08/02 19:01:40;;;;;;;2.23;2.03;;;28.40;58.80;;;;;;6082064;23;20449;-72
2022/08/02 19:04:08;;;;;;;2.50;2.30;;;28.30;59.00;;;;;;6077980;23;20438;-72
2022/08/02 19:06:35;;;;;;;2.40;2.20;;;28.20;59.10;;;;;;6068016;23;20462;-72
2022/08/02 19:09:02;;;;;;;3.83;2.50;;;28.20;59.40;;;;;;6077987;23;20458;-71
2022/08/02 19:11:29;;;;;;;3.07;2.60;;;28.10;59.40;;;;;;6081542;23;21139;-71
2022/08/02 19:13:56;;;;;;;3.03;2.63;;;28.00;59.40;;;;;;6078011;23;20451;-71
2022/08/02 19:16:26;;;;;;;4.93;3.00;;;28.00;59.60;;;;;;6074582;23;20482;-71
2022/08/02 19:18:53;;;;;;;3.17;2.97;;;27.90;59.80;;;;;;6077527;23;20439;-71
2022/08/02 19:21:20;;;;;;;3.60;3.30;;;27.80;60.10;;;;;;6077803;23;21141;-71
2022/08/02 19:23:47;;;;;;;3.13;2.83;;;27.70;60.40;;;;;;6060069;23;20467;-72
2022/08/02 19:26:14;;;;;;;2.53;2.33;;;27.70;60.70;;;;;;6075214;23;20491;-72
2022/08/02 19:28:41;;;;;;;3.00;2.77;;;27.50;60.50;;;;;;6068220;23;20521;-72
2022/08/02 19:31:08;;;;;;;3.90;3.60;;;27.50;60.80;;;;;;6076806;23;20451;-72
2022/08/02 19:33:37;;;;;;;3.47;3.07;;;27.50;61.00;;;;;;6069795;23;20462;-72
2022/08/02 19:36:05;;;;;;;4.30;3.30;;;27.40;61.30;;;;;;6055367;23;20486;-72
2022/08/02 19:38:32;;;;;;;3.20;2.90;;;27.30;61.40;;;;;;6072858;23;20442;-71
2022/08/02 19:40:59;;;;;;;3.07;2.87;;;27.20;61.70;;;;;;6066134;23;21869;-72
2022/08/02 19:43:26;;;;;;;3.23;2.93;;;27.20;62.30;;;;;;6083913;23;20446;-72
2022/08/02 19:45:54;;;;;;;3.13;2.87;;;27.10;62.60;;;;;;6077908;23;21024;-72
2022/08/02 19:48:23;;;;;;;3.17;2.93;;;27.00;62.90;;;;;;6086533;23;20434;-72
2022/08/02 19:50:53;;;;;;;3.17;2.87;;;27.00;62.80;;;;;;6077134;23;20467;-72
2022/08/02 19:53:20;;;;;;;3.43;2.57;;;26.90;63.00;;;;;;6080277;23;20519;-72
2022/08/02 19:55:47;;;;;;;2.90;2.70;;;26.80;63.50;;;;;;6076966;23;20806;-72
2022/08/02 19:58:14;;;;;;;4.00;3.60;;;26.80;63.90;;;;;;6073422;23;20440;-72
2022/08/02 20:00:41;;;;;;;3.83;3.40;;;26.70;64.00;;;;;;6078950;23;20462;-71
2022/08/02 20:03:08;;;;;;;3.30;3.00;;;26.70;64.20;;;;;;6086531;23;20434;-71
2022/08/02 20:05:36;;;;;;;3.10;2.90;;;26.60;64.00;;;;;;6080710;23;20548;-71
2022/08/02 20:08:04;;;;;;;3.27;3.07;;;26.60;64.50;;;;;;6082058;23;20825;-72
2022/08/02 20:10:33;;;;;;;3.47;3.17;;;26.50;64.50;;;;;;6081893;23;20908;-71
2022/08/02 20:13:00;;;;;;;3.33;3.03;;;26.60;64.50;;;;;;6076882;23;20467;-71
2022/08/02 20:15:29;;;;;;;2.87;2.60;;;26.40;65.00;;;;;;6070696;23;20469;-72
2022/08/02 20:17:56;;;;;;;3.70;2.80;;;26.40;65.40;;;;;;6074063;23;20474;-72
2022/08/02 20:20:23;;;;;;;2.77;2.57;;;26.30;65.10;;;;;;6075034;23;20441;-72
2022/08/02 20:25:36;;;;;;;2.80;2.60;;;26.20;66.00;;;;;;6070037;23;20466;-71
2022/08/02 20:28:04;;;;;;;2.77;2.57;;;26.20;66.20;;;;;;6074843;23;20437;-71
2022/08/02 20:30:31;;;;;;;3.17;2.63;;;26.10;66.10;;;;;;6088100;23;20933;-72
2022/08/02 20:32:59;;;;;;;3.03;2.83;;;26.10;66.20;;;;;;6078075;23;20466;-72